Time;durP1;ratioP1;P1;durP2;ratioP2;P2;SDS_P1;SDS_P2;PMS_P1;PMS_P2;Temp;Humidity;BMP_temperature;BMP_pressure;BME280_temperature;BME280_humidity;BME280_pressure;Samples;Min_cycle;Max_cycle;Signal;HPM_P1;HPM_P2
2022/03/09 00:02:12;;;;;;;3.13;3.03;;;;;;;-0.35;89.02;92055.63;5035747;28;20533;-75
2022/03/09 00:04:41;;;;;;;2.73;2.63;;;;;;;-0.29;88.64;92039.84;5035888;28;20571;-75
2022/03/09 00:07:08;;;;;;;3.20;3.10;;;;;;;-0.17;88.89;92052.91;5035319;28;20467;-75
2022/03/09 00:09:36;;;;;;;2.57;2.47;;;;;;;-0.13;88.76;92057.00;5036063;28;20573;-74
2022/03/09 00:12:03;;;;;;;2.23;2.20;;;;;;;-0.10;88.50;92048.69;5036713;28;20577;-75
2022/03/09 00:14:30;;;;;;;1.77;1.77;;;;;;;-0.05;88.65;92050.28;5036595;28;20460;-75
2022/03/09 00:16:57;;;;;;;3.13;3.03;;;;;;;-0.13;88.99;92044.59;5035143;28;20193;-75
2022/03/09 00:19:25;;;;;;;5.43;2.40;;;;;;;-0.35;89.19;92032.47;5037332;28;20523;-75
2022/03/09 00:21:54;;;;;;;3.43;3.07;;;;;;;-0.26;89.18;92042.28;5035658;28;20288;-74
2022/03/09 00:24:21;;;;;;;1.87;1.87;;;;;;;-0.29;89.36;92032.41;5035323;28;20525;-75
2022/03/09 00:26:50;;;;;;;4.33;3.27;;;;;;;-0.15;88.65;92048.75;5035638;28;20577;-75
2022/03/09 00:29:17;;;;;;;2.60;2.50;;;;;;;-0.09;88.74;92037.94;5035635;28;20548;-75
2022/03/09 00:31:44;;;;;;;2.90;2.80;;;;;;;-0.29;89.18;92025.78;5035225;28;20190;-74
2022/03/09 00:34:11;;;;;;;3.83;3.60;;;;;;;-0.36;88.87;92029.16;5035406;28;20609;-75
2022/03/09 00:36:41;;;;;;;3.73;3.53;;;;;;;-0.35;88.91;92030.81;5035217;28;20190;-75
2022/03/09 00:39:10;;;;;;;3.40;3.10;;;;;;;-0.21;88.55;92028.97;5035758;28;20644;-75
2022/03/09 00:41:37;;;;;;;1.77;1.77;;;;;;;-0.19;88.46;92021.53;5035072;28;20623;-74
2022/03/09 00:44:05;;;;;;;2.60;2.37;;;;;;;-0.08;89.35;92018.06;5035492;28;20511;-74
2022/03/09 00:46:33;;;;;;;1.87;1.77;;;;;;;-0.19;89.42;92019.84;5038363;28;20193;-74
2022/03/09 00:49:00;;;;;;;2.53;2.40;;;;;;;-0.14;89.39;92018.13;5038738;28;20276;-74
2022/03/09 00:51:27;;;;;;;3.63;2.83;;;;;;;-0.22;89.49;92017.41;5039351;28;20224;-75
2022/03/09 00:53:54;;;;;;;2.40;2.07;;;;;;;-0.33;89.73;92008.44;5039281;28;20246;-75
2022/03/09 00:56:23;;;;;;;2.97;2.87;;;;;;;-0.36;90.00;92004.34;5038923;28;20628;-75
2022/03/09 00:58:50;;;;;;;3.57;2.87;;;;;;;-0.39;89.70;92006.84;5039056;28;20232;-75
2022/03/09 01:01:18;;;;;;;1.77;1.70;;;;;;;-0.26;88.62;92020.78;5039401;28;20476;-74
2022/03/09 01:03:45;;;;;;;2.93;2.90;;;;;;;-0.48;89.07;92007.81;5045619;28;20548;-75
2022/03/09 01:06:12;;;;;;;7.07;3.00;;;;;;;-0.38;88.97;92006.03;5044229;28;20205;-75
2022/03/09 01:08:39;;;;;;;2.63;2.63;;;;;;;-0.27;87.80;92013.34;5038449;28;20458;-74
2022/03/09 01:11:06;;;;;;;2.87;2.77;;;;;;;-0.22;88.53;92009.13;5038779;28;20610;-75
2022/03/09 01:13:35;;;;;;;2.73;2.53;;;;;;;-0.16;89.33;91999.13;5038995;28;20456;-75
2022/03/09 01:16:02;;;;;;;1.90;1.90;;;;;;;-0.29;89.90;92000.16;5039176;28;20597;-75
2022/03/09 01:18:30;;;;;;;2.67;2.57;;;;;;;-0.21;88.96;92004.16;5038478;28;20524;-75
2022/03/09 01:20:57;;;;;;;2.63;2.53;;;;;;;-0.17;88.45;92002.47;5038656;28;20506;-74
2022/03/09 01:23:24;;;;;;;6.00;2.90;;;;;;;-0.23;88.90;91985.19;5038304;28;20190;-75
2022/03/09 01:25:52;;;;;;;1.63;1.63;;;;;;;-0.24;89.70;91996.75;5038936;28;20575;-74
2022/03/09 01:28:19;;;;;;;3.43;3.30;;;;;;;-0.33;89.56;91986.13;5037907;28;20589;-76
2022/03/09 01:30:48;;;;;;;3.07;2.97;;;;;;;-0.39;90.60;91994.44;5037958;28;20216;-76
2022/03/09 01:33:15;;;;;;;6.17;2.90;;;;;;;-0.33;89.78;91989.41;5038592;28;20461;-74
2022/03/09 01:35:42;;;;;;;2.83;2.60;;;;;;;-0.21;89.89;91993.41;5039544;28;20514;-75
2022/03/09 01:38:09;;;;;;;2.73;2.63;;;;;;;-0.24;90.28;91991.81;5049557;28;20667;-75
2022/03/09 01:40:36;;;;;;;3.47;2.97;;;;;;;-0.14;89.30;91993.31;5038020;28;20465;-75
2022/03/09 01:43:04;;;;;;;1.53;1.53;;;;;;;-0.09;88.64;91989.13;5037000;28;20205;-76
2022/03/09 01:45:31;;;;;;;1.67;1.67;;;;;;;-0.04;89.01;91989.88;5038245;28;20643;-76
2022/03/09 01:47:59;;;;;;;3.63;3.53;;;;;;;0.02;89.08;91988.97;5038572;28;20585;-75
2022/03/09 01:50:27;;;;;;;1.50;1.50;;;;;;;0.00;89.09;91990.66;5037981;28;20193;-76
2022/03/09 01:52:54;;;;;;;3.40;3.20;;;;;;;0.01;88.28;91987.31;5037688;28;20578;-75
2022/03/09 01:55:21;;;;;;;1.93;1.93;;;;;;;0.03;88.01;91992.28;5038098;28;20468;-76
2022/03/09 01:57:49;;;;;;;2.03;1.93;;;;;;;-0.03;88.43;91989.03;5036893;28;20618;-75
2022/03/09 02:00:17;;;;;;;1.77;1.77;;;;;;;-0.03;89.12;91989.03;5037730;28;20506;-75
2022/03/09 02:02:45;;;;;;;2.27;2.20;;;;;;;-0.09;89.06;91981.66;5037539;28;20193;-76
2022/03/09 02:05:15;;;;;;;1.00;1.00;;;;;;;-0.23;90.05;91981.03;5037736;28;20515;-76
2022/03/09 02:10:28;;;;;;;2.73;2.63;;;;;;;-0.18;89.37;91989.25;5037570;28;20636;-76
2022/03/09 02:12:55;;;;;;;2.23;2.10;;;;;;;-0.15;89.63;91995.81;5047343;28;20650;-76
2022/03/09 02:15:22;;;;;;;2.97;2.80;;;;;;;-0.23;89.93;91972.78;5043656;28;21095;-76
2022/03/09 02:17:49;;;;;;;3.43;3.23;;;;;;;-0.10;89.62;91984.97;5056114;28;20621;-76
2022/03/09 02:20:18;;;;;;;1.20;1.20;;;;;;;-0.12;89.75;91988.34;5057850;28;20553;-77
2022/03/09 02:22:46;;;;;;;2.37;2.17;;;;;;;-0.09;89.35;91986.63;5056957;27;20522;-76
2022/03/09 02:25:15;;;;;;;1.80;1.67;;;;;;;-0.08;89.04;91983.31;5044002;28;20597;-76
2022/03/09 02:27:44;;;;;;;1.63;1.63;;;;;;;-0.11;88.61;91980.84;5056832;28;20492;-76
2022/03/09 02:30:14;;;;;;;2.87;2.77;;;;;;;-0.05;88.05;91993.19;5056996;28;20618;-76
2022/03/09 02:32:42;;;;;;;1.43;1.43;;;;;;;-0.10;87.69;91989.94;5042974;28;20566;-76
2022/03/09 02:35:10;;;;;;;2.73;1.60;;;;;;;-0.14;88.30;91995.81;5037301;28;20194;-76
2022/03/09 02:37:37;;;;;;;2.20;2.20;;;;;;;-0.15;87.59;92000.78;5037342;28;20581;-76
2022/03/09 02:40:09;;;;;;;2.30;2.20;;;;;;;-0.18;87.60;91996.69;5036363;28;20632;-76
2022/03/09 02:42:37;;;;;;;1.53;1.53;;;;;;;-0.24;88.50;91993.47;5036769;28;20593;-76
2022/03/09 02:45:04;;;;;;;1.40;1.40;;;;;;;-0.26;88.43;91992.66;5037883;28;20573;-77
2022/03/09 02:47:32;;;;;;;1.50;1.50;;;;;;;-0.30;89.30;91993.53;5037132;28;20570;-76
2022/03/09 02:49:59;;;;;;;2.57;2.47;;;;;;;-0.31;89.16;91986.94;5036940;28;20205;-76
2022/03/09 02:52:27;;;;;;;2.23;2.13;;;;;;;-0.32;88.52;91990.25;5036748;28;20589;-76
2022/03/09 02:54:54;;;;;;;1.67;1.67;;;;;;;-0.34;88.93;91986.97;5036975;28;20566;-76
2022/03/09 02:57:22;;;;;;;5.60;1.93;;;;;;;-0.30;88.86;91983.59;5036356;28;20605;-76
2022/03/09 02:59:50;;;;;;;1.63;1.63;;;;;;;-0.46;89.52;91963.13;5037511;28;20494;-76
2022/03/09 03:02:18;;;;;;;2.10;2.03;;;;;;;-0.32;89.44;91988.59;5036225;28;20459;-76
2022/03/09 03:04:45;;;;;;;1.97;1.97;;;;;;;-0.37;89.31;91977.06;5036178;28;20573;-76
2022/03/09 03:07:12;;;;;;;4.20;2.77;;;;;;;-0.36;89.85;91987.00;5036072;28;20504;-76
2022/03/09 03:09:39;;;;;;;2.50;2.30;;;;;;;-0.60;90.42;91987.28;5035799;28;20558;-76
2022/03/09 03:12:07;;;;;;;2.10;2.10;;;;;;;-0.51;90.54;91975.56;5036765;28;20554;-76
2022/03/09 03:14:36;;;;;;;2.53;2.53;;;;;;;-0.43;90.51;91982.94;5036744;28;20574;-76
2022/03/09 03:17:03;;;;;;;4.43;4.23;;;;;;;-0.42;89.70;91987.06;5036378;28;20586;-76
2022/03/09 03:19:30;;;;;;;2.53;2.50;;;;;;;-0.36;89.72;91988.66;5036059;28;20707;-76
2022/03/09 03:21:57;;;;;;;1.93;1.83;;;;;;;-0.39;90.17;91978.78;5036031;28;20215;-76
2022/03/09 03:24:24;;;;;;;6.17;3.60;;;;;;;-0.58;90.94;91980.66;5036775;28;20470;-76
2022/03/09 03:26:52;;;;;;;2.00;1.93;;;;;;;-0.64;91.88;91975.75;5035911;28;20568;-76
2022/03/09 03:29:19;;;;;;;1.30;1.30;;;;;;;-0.57;91.99;91982.28;5036719;28;20251;-76
2022/03/09 03:31:48;;;;;;;2.37;2.33;;;;;;;-0.45;91.54;91987.09;5035528;28;20616;-76
2022/03/09 03:34:15;;;;;;;1.93;1.93;;;;;;;-0.68;92.01;91971.69;5036803;28;20542;-76
2022/03/09 03:36:42;;;;;;;2.63;2.50;;;;;;;-0.50;91.98;91981.34;5036580;28;20569;-76
2022/03/09 03:39:09;;;;;;;3.63;3.43;;;;;;;-0.54;91.25;91984.72;5035960;28;20625;-77
2022/03/09 03:41:37;;;;;;;2.30;1.40;;;;;;;-0.65;91.81;91984.03;5047416;28;20496;-76
2022/03/09 03:44:05;;;;;;;2.80;2.70;;;;;;;-0.74;92.36;91986.63;5035269;28;20480;-76
2022/03/09 03:46:32;;;;;;;1.47;1.47;;;;;;;-0.62;92.56;91974.09;5035429;28;20558;-76
2022/03/09 03:49:01;;;;;;;1.73;1.70;;;;;;;-0.62;92.45;91982.31;5035659;28;20212;-76
2022/03/09 03:51:28;;;;;;;1.57;1.57;;;;;;;-0.52;92.33;91978.09;5035847;28;20576;-76
2022/03/09 03:53:56;;;;;;;1.70;1.70;;;;;;;-0.53;92.36;91976.44;5035618;28;20260;-76
2022/03/09 03:56:23;;;;;;;3.07;2.87;;;;;;;-0.45;92.27;91974.69;5035259;28;20229;-76
2022/03/09 03:58:50;;;;;;;3.90;3.70;;;;;;;-0.46;91.57;91970.59;5035597;28;20691;-76
2022/03/09 04:01:17;;;;;;;4.33;2.90;;;;;;;-0.43;91.63;91980.44;5035636;28;20601;-76
2022/03/09 04:03:44;;;;;;;1.80;1.70;;;;;;;-0.40;91.94;91972.16;5036935;28;20589;-76
2022/03/09 04:06:13;;;;;;;2.00;2.00;;;;;;;-0.56;91.99;91969.03;5036657;28;20546;-76
2022/03/09 04:08:40;;;;;;;1.73;1.70;;;;;;;-0.75;92.46;91972.56;5035211;28;20186;-76
2022/03/09 04:11:07;;;;;;;3.30;3.20;;;;;;;-0.98;93.23;91967.88;5036186;28;20581;-76
2022/03/09 04:13:34;;;;;;;1.97;1.93;;;;;;;-1.08;93.98;91976.25;5036003;28;20493;-76
2022/03/09 04:16:01;;;;;;;3.80;3.70;;;;;;;-1.34;94.09;91950.03;5036207;28;20193;-77
2022/03/09 04:18:28;;;;;;;3.30;3.10;;;;;;;-1.04;92.94;91988.59;5035790;28;20478;-77
2022/03/09 04:20:56;;;;;;;5.10;3.30;;;;;;;-1.12;93.89;91977.91;5039325;28;20546;-76
2022/03/09 04:23:24;;;;;;;3.00;2.90;;;;;;;-1.25;95.03;91978.88;5039759;28;20589;-76
2022/03/09 04:25:51;;;;;;;9.00;4.67;;;;;;;-1.34;95.31;91974.00;5040585;28;20454;-76
2022/03/09 04:28:19;;;;;;;4.10;3.87;;;;;;;-1.30;95.34;91980.59;5039968;28;20486;-76
2022/03/09 04:30:46;;;;;;;4.93;4.73;;;;;;;-1.21;93.63;91972.22;5048658;28;20204;-75
2022/03/09 04:33:13;;;;;;;6.93;6.37;;;;;;;-1.12;93.81;91984.50;5039277;28;20512;-75
2022/03/09 04:35:40;;;;;;;4.57;4.23;;;;;;;-1.19;93.97;91987.91;5039147;28;20205;-75
2022/03/09 04:38:07;;;;;;;7.70;5.00;;;;;;;-1.07;93.67;91991.06;5038659;28;20529;-75
2022/03/09 04:40:36;;;;;;;3.13;3.03;;;;;;;-1.18;94.54;91990.34;5039311;28;20613;-75
2022/03/09 04:43:03;;;;;;;1.43;1.43;;;;;;;-1.13;94.65;91992.81;5039276;28;20585;-75
2022/03/09 04:45:30;;;;;;;3.93;3.37;;;;;;;-0.97;93.83;91989.34;5039245;28;20668;-76
2022/03/09 04:47:58;;;;;;;4.10;3.80;;;;;;;-0.86;93.48;91987.56;5039411;28;20577;-76
2022/03/09 04:50:25;;;;;;;6.03;4.30;;;;;;;-0.79;92.17;91985.84;5039790;28;20547;-76
2022/03/09 04:52:52;;;;;;;6.20;5.57;;;;;;;-0.66;91.43;91999.75;5038849;28;20497;-76
2022/03/09 04:55:19;;;;;;;6.43;6.03;;;;;;;-0.61;89.95;92011.25;5039378;28;20198;-76
2022/03/09 04:57:48;;;;;;;6.60;5.73;;;;;;;-0.56;90.34;92003.75;5039329;28;20474;-75
2022/03/09 05:00:17;;;;;;;5.20;4.90;;;;;;;-0.57;90.43;91999.66;5038836;28;20632;-76
2022/03/09 05:02:44;;;;;;;4.27;3.77;;;;;;;-0.68;90.98;91992.34;5038897;28;20551;-76
2022/03/09 05:05:12;;;;;;;4.77;4.63;;;;;;;-0.58;90.81;92003.78;5039039;28;20205;-76
2022/03/09 05:07:41;;;;;;;4.57;4.37;;;;;;;-0.50;90.12;92021.88;5039220;28;20187;-76
2022/03/09 05:10:09;;;;;;;3.67;3.53;;;;;;;-0.50;90.45;92014.44;5038666;28;20449;-76
2022/03/09 05:12:36;;;;;;;4.83;4.63;;;;;;;-0.51;90.67;92010.31;5038562;28;20551;-76
2022/03/09 05:15:06;;;;;;;4.83;3.93;;;;;;;-0.58;91.48;92015.38;5038426;28;20569;-76
2022/03/09 05:17:33;;;;;;;5.67;5.27;;;;;;;-0.60;91.47;92004.63;5038213;28;20235;-76
2022/03/09 05:20:00;;;;;;;7.23;7.03;;;;;;;-0.52;91.58;92015.31;5038549;28;20617;-76
2022/03/09 05:22:27;;;;;;;6.17;5.97;;;;;;;-0.60;91.74;91990.56;5038129;28;20570;-76
2022/03/09 05:24:55;;;;;;;7.07;6.60;;;;;;;-0.65;91.69;92014.59;5038202;28;20552;-76
2022/03/09 05:27:22;;;;;;;8.87;8.43;;;;;;;-0.60;90.71;92017.03;5038279;28;20432;-73
2022/03/09 05:29:49;;;;;;;7.73;7.33;;;;;;;-0.51;90.15;92004.53;5038188;28;20201;-75
2022/03/09 05:32:18;;;;;;;6.13;5.93;;;;;;;-0.27;90.36;92025.75;5036973;28;20193;-74
2022/03/09 05:34:46;;;;;;;5.50;5.30;;;;;;;-0.25;90.04;92032.34;5043215;28;20479;-74
2022/03/09 05:37:13;;;;;;;5.57;3.97;;;;;;;-0.43;90.55;92030.91;5042038;28;20511;-76
2022/03/09 05:39:40;;;;;;;3.87;3.67;;;;;;;-0.65;90.91;92028.66;5040508;28;20673;-76
2022/03/09 05:42:08;;;;;;;3.63;3.40;;;;;;;-0.52;89.66;92050.03;5039999;28;20523;-76
2022/03/09 05:44:35;;;;;;;7.37;6.73;;;;;;;-0.52;89.46;92040.94;5039702;28;20476;-77
2022/03/09 05:47:03;;;;;;;6.93;5.20;;;;;;;-0.43;90.32;92042.47;5046632;28;20567;-76
2022/03/09 05:49:32;;;;;;;5.90;5.40;;;;;;;-0.33;90.15;92050.63;5039339;28;20604;-76
2022/03/09 05:52:00;;;;;;;5.53;4.60;;;;;;;-0.50;90.18;92023.53;5037731;28;20490;-76
2022/03/09 05:54:27;;;;;;;3.43;3.33;;;;;;;-0.29;90.35;92047.28;5038430;28;20650;-75
2022/03/09 05:56:54;;;;;;;4.53;4.23;;;;;;;-0.29;90.65;92059.69;5036633;28;20475;-75
2022/03/09 05:59:21;;;;;;;3.70;3.50;;;;;;;-0.33;91.03;92058.06;5032821;28;20625;-75
2022/03/09 06:01:48;;;;;;;4.67;4.47;;;;;;;-0.34;90.49;92058.94;5044661;28;20578;-74
2022/03/09 06:04:16;;;;;;;10.37;9.50;;;;;;;-0.39;90.56;92036.63;5044013;28;20554;-75
2022/03/09 06:06:45;;;;;;;7.87;7.47;;;;;;;-0.31;90.91;92051.44;5038779;28;20533;-75
2022/03/09 06:09:12;;;;;;;4.53;4.23;;;;;;;-0.26;90.61;92064.63;5042825;28;20562;-75
2022/03/09 06:11:41;;;;;;;5.40;5.20;;;;;;;-0.28;91.00;92066.31;5047184;28;20601;-76
2022/03/09 06:14:08;;;;;;;4.10;3.57;;;;;;;-0.32;90.83;92067.97;5042022;28;20284;-75
2022/03/09 06:16:36;;;;;;;5.47;5.27;;;;;;;-0.25;90.86;92073.69;5040247;28;20570;-75
2022/03/09 06:19:03;;;;;;;15.07;13.63;;;;;;;-0.30;90.95;92063.00;5039198;28;20598;-73
2022/03/09 06:21:30;;;;;;;8.77;8.27;;;;;;;-0.26;91.45;92067.09;5036579;28;20202;-74
2022/03/09 06:23:59;;;;;;;6.43;6.20;;;;;;;-0.33;91.72;92063.84;5036770;28;20579;-73
2022/03/09 06:26:27;;;;;;;3.20;3.03;;;;;;;-0.36;91.89;92075.47;5040516;28;20475;-74
2022/03/09 06:28:54;;;;;;;3.40;3.30;;;;;;;-0.69;92.39;92022.94;5038643;27;20274;-75
2022/03/09 06:31:23;;;;;;;2.93;2.83;;;;;;;-0.66;92.39;92022.88;5041499;28;20209;-75
2022/03/09 06:33:51;;;;;;;2.57;2.57;;;;;;;-0.47;91.63;92054.09;5042490;28;20475;-76
2022/03/09 06:36:19;;;;;;;3.13;3.07;;;;;;;-0.36;91.77;92071.34;5042640;28;20559;-75
2022/03/09 06:38:46;;;;;;;4.17;3.87;;;;;;;-0.31;91.78;92077.06;5044232;28;20481;-75
2022/03/09 06:41:15;;;;;;;6.00;5.50;;;;;;;-0.24;92.02;92072.88;5034983;28;20523;-74
2022/03/09 06:43:42;;;;;;;2.93;2.83;;;;;;;-0.28;91.91;92068.78;5034963;28;20651;-75
2022/03/09 06:46:10;;;;;;;5.20;4.80;;;;;;;-0.26;90.41;92079.50;5035972;28;20550;-75
2022/03/09 06:48:37;;;;;;;3.20;2.63;;;;;;;-0.17;90.90;92089.34;5038605;28;20592;-75
2022/03/09 06:51:05;;;;;;;18.17;10.90;;;;;;;-0.14;91.39;92084.34;5040947;28;20539;-74
2022/03/09 06:53:32;;;;;;;12.53;11.70;;;;;;;-0.12;91.50;92067.78;5038843;28;20613;-75
2022/03/09 06:55:59;;;;;;;7.17;6.67;;;;;;;-0.01;91.29;92079.22;5038883;28;20464;-75
2022/03/09 06:58:31;;;;;;;7.47;6.80;;;;;;;0.17;90.23;92089.75;5038791;28;20590;-75
2022/03/09 07:00:58;;;;;;;4.30;4.10;;;;;;;0.14;87.93;92108.00;5047072;28;20637;-74
2022/03/09 07:03:25;;;;;;;6.27;5.70;;;;;;;0.21;88.58;92094.66;5039137;28;20564;-75
2022/03/09 07:05:54;;;;;;;5.50;4.97;;;;;;;0.17;89.04;92075.66;5038517;28;20617;-75
2022/03/09 07:08:21;;;;;;;6.33;5.70;;;;;;;0.35;89.30;92080.38;5036914;28;20292;-75
2022/03/09 07:10:48;;;;;;;7.83;5.93;;;;;;;0.38;88.21;92092.78;5037304;28;20568;-75
2022/03/09 07:13:15;;;;;;;10.53;9.57;;;;;;;0.48;86.89;92102.59;5038513;28;20580;-76
2022/03/09 07:15:44;;;;;;;7.73;6.23;;;;;;;0.49;86.56;92100.09;5038309;28;20509;-77
2022/03/09 07:18:11;;;;;;;6.00;5.47;;;;;;;0.43;86.87;92099.34;5036243;28;20600;-77
2022/03/09 07:20:40;;;;;;;5.77;5.07;;;;;;;0.31;86.47;92090.38;5040355;28;20586;-77
2022/03/09 07:23:08;;;;;;;6.77;6.30;;;;;;;0.36;86.57;92094.44;5040633;28;20226;-77
2022/03/09 07:25:36;;;;;;;4.77;4.43;;;;;;;0.30;86.40;92081.28;5038227;28;20451;-77
2022/03/09 07:28:03;;;;;;;8.20;7.63;;;;;;;0.36;86.47;92096.94;5038570;28;20629;-76
2022/03/09 07:30:31;;;;;;;7.20;6.57;;;;;;;0.28;88.20;92092.94;5040246;28;20546;-76
2022/03/09 07:33:02;;;;;;;5.37;5.07;;;;;;;0.40;87.98;92092.75;5038308;28;20205;-77
2022/03/09 07:35:29;;;;;;;4.53;4.40;;;;;;;0.43;86.18;92091.88;5038309;28;20589;-76
2022/03/09 07:37:58;;;;;;;7.83;7.43;;;;;;;0.56;86.24;92099.16;5037107;28;20462;-74
2022/03/09 07:40:26;;;;;;;6.60;6.07;;;;;;;0.60;84.97;92104.91;5039740;28;20633;-77
2022/03/09 07:42:53;;;;;;;5.23;4.73;;;;;;;0.61;84.04;92092.47;5033581;28;20653;-77
2022/03/09 07:45:20;;;;;;;4.13;3.77;;;;;;;0.78;83.42;92114.59;5037445;28;20476;-76
2022/03/09 07:47:47;;;;;;;5.73;5.33;;;;;;;0.85;82.34;92118.59;5037926;28;20592;-76
2022/03/09 07:50:17;;;;;;;9.50;6.97;;;;;;;0.96;82.52;92111.00;5039557;28;20468;-76
2022/03/09 07:52:44;;;;;;;5.93;4.80;;;;;;;1.08;82.53;92118.25;5040182;28;20200;-76
2022/03/09 07:55:12;;;;;;;12.70;9.77;;;;;;;1.08;81.05;92121.56;5041620;28;20478;-76
2022/03/09 07:57:39;;;;;;;5.23;4.93;;;;;;;1.11;79.94;92138.13;5039408;28;20225;-76
2022/03/09 08:00:08;;;;;;;5.07;4.87;;;;;;;1.20;80.47;92125.53;5036037;28;20660;-76
2022/03/09 08:02:35;;;;;;;4.87;4.63;;;;;;;1.19;79.61;92114.75;5036638;28;20558;-76
2022/03/09 08:05:03;;;;;;;3.63;3.43;;;;;;;1.30;78.89;92136.97;5040416;28;20463;-77
2022/03/09 08:07:32;;;;;;;2.53;2.43;;;;;;;1.40;77.48;92145.97;5038154;28;20569;-76
2022/03/09 08:09:59;;;;;;;3.80;3.70;;;;;;;1.48;78.24;92134.19;5035898;28;20207;-77
2022/03/09 08:12:27;;;;;;;5.83;5.40;;;;;;;1.54;78.23;92123.31;5037696;28;20574;-76
2022/03/09 08:14:55;;;;;;;3.90;3.70;;;;;;;1.64;77.66;92133.09;5037649;28;20592;-76
2022/03/09 08:17:22;;;;;;;4.63;4.20;;;;;;;1.53;77.81;92114.19;5039681;28;20566;-76
2022/03/09 08:19:49;;;;;;;6.83;6.43;;;;;;;1.77;78.15;92127.88;5043119;28;20600;-77
2022/03/09 08:22:17;;;;;;;9.27;8.70;;;;;;;1.80;77.26;92146.09;5035350;28;20196;-77
2022/03/09 08:24:45;;;;;;;6.30;5.97;;;;;;;1.80;76.36;92148.59;5038378;28;20513;-76
2022/03/09 08:27:13;;;;;;;12.37;10.93;;;;;;;1.71;74.21;92156.22;5037155;28;20558;-76
2022/03/09 08:29:41;;;;;;;3.70;3.30;;;;;;;1.68;74.39;92151.28;5040104;28;20613;-76
2022/03/09 08:32:08;;;;;;;5.43;4.50;;;;;;;1.86;75.55;92140.19;5035708;28;20507;-76
2022/03/09 08:34:35;;;;;;;5.33;5.03;;;;;;;1.89;75.72;92145.94;5034235;28;20228;-76
2022/03/09 08:37:03;;;;;;;3.20;3.00;;;;;;;1.85;71.84;92165.94;5042902;28;20543;-77
2022/03/09 08:39:30;;;;;;;3.33;3.13;;;;;;;1.67;72.04;92152.13;5036969;28;20618;-77
2022/03/09 08:41:59;;;;;;;3.63;3.40;;;;;;;1.76;71.75;92161.09;5038158;28;20565;-76
2022/03/09 08:44:26;;;;;;;5.43;4.93;;;;;;;1.63;73.23;92143.88;5041281;28;20524;-76
2022/03/09 08:46:53;;;;;;;8.03;5.73;;;;;;;1.70;74.29;92132.16;5035542;28;20217;-75
2022/03/09 08:49:21;;;;;;;4.13;3.80;;;;;;;1.71;73.29;92150.41;5038002;28;20535;-76
2022/03/09 08:51:48;;;;;;;4.17;3.97;;;;;;;1.72;74.46;92127.97;5036699;28;20590;-76
2022/03/09 08:54:15;;;;;;;5.57;5.07;;;;;;;1.86;76.39;92122.75;5034970;28;20609;-76
2022/03/09 08:56:43;;;;;;;9.30;8.37;;;;;;;1.85;76.25;92103.69;5034090;28;20699;-76
2022/03/09 08:59:11;;;;;;;7.80;6.57;;;;;;;2.12;74.57;92143.00;5037232;28;20596;-76
2022/03/09 09:01:38;;;;;;;4.30;3.83;;;;;;;2.13;74.75;92117.25;5044435;28;20516;-76
2022/03/09 09:04:05;;;;;;;5.37;5.07;;;;;;;2.27;74.28;92124.44;5037521;28;20463;-76
2022/03/09 09:06:33;;;;;;;6.17;5.67;;;;;;;2.35;73.76;92135.09;5039555;28;20208;-76
2022/03/09 09:09:00;;;;;;;9.80;7.73;;;;;;;2.35;74.26;92128.44;5038788;28;20563;-75
2022/03/09 09:11:28;;;;;;;6.20;5.63;;;;;;;2.47;73.36;92144.81;5042219;28;20469;-74
2022/03/09 09:13:55;;;;;;;9.87;5.90;;;;;;;2.42;74.17;92139.91;5043656;27;20193;-75
2022/03/09 09:16:24;;;;;;;6.63;6.33;;;;;;;2.50;74.62;92139.75;5040722;28;20615;-75
2022/03/09 09:18:51;;;;;;;7.13;6.63;;;;;;;2.53;75.83;92126.44;5040653;28;20593;-76
2022/03/09 09:21:18;;;;;;;5.57;5.20;;;;;;;2.46;73.31;92153.16;5039489;28;20574;-74
2022/03/09 09:23:46;;;;;;;5.00;4.80;;;;;;;2.40;74.58;92135.81;5039765;28;20555;-75
2022/03/09 09:26:15;;;;;;;8.87;3.90;;;;;;;2.32;75.93;92125.16;5039595;28;20557;-75
2022/03/09 09:28:43;;;;;;;7.00;6.50;;;;;;;2.33;75.04;92126.81;5041548;28;20566;-73
2022/03/09 09:31:10;;;;;;;9.83;5.43;;;;;;;2.27;74.07;92139.41;5045249;28;20576;-74
2022/03/09 09:33:39;;;;;;;10.97;9.80;;;;;;;2.22;72.67;92151.94;5038459;28;20208;-74
2022/03/09 09:36:06;;;;;;;5.03;4.83;;;;;;;2.13;73.59;92128.91;5036673;28;20552;-74
2022/03/09 09:38:33;;;;;;;8.53;4.47;;;;;;;2.10;72.63;92132.25;5042257;28;20332;-75
2022/03/09 09:41:02;;;;;;;5.20;4.10;;;;;;;2.26;73.22;92133.59;5039976;28;20699;-75
2022/03/09 09:43:30;;;;;;;5.03;4.63;;;;;;;2.37;71.74;92150.81;5036558;28;20288;-74
2022/03/09 09:45:58;;;;;;;3.60;3.40;;;;;;;2.32;69.94;92173.34;5043693;28;20588;-75
2022/03/09 09:48:25;;;;;;;4.33;3.83;;;;;;;2.39;70.49;92159.09;5040127;28;20637;-75
2022/03/09 09:50:54;;;;;;;5.13;4.73;;;;;;;2.50;70.11;92173.00;5042341;28;20479;-77
2022/03/09 09:53:23;;;;;;;4.70;4.33;;;;;;;2.53;69.65;92173.78;5039129;28;20287;-76
2022/03/09 09:55:51;;;;;;;10.33;5.53;;;;;;;2.52;70.71;92155.53;5044695;28;20257;-76
2022/03/09 09:58:21;;;;;;;5.53;4.03;;;;;;;2.57;70.45;92160.41;5037799;28;20511;-77
2022/03/09 10:00:49;;;;;;;8.40;5.67;;;;;;;2.60;70.51;92147.88;5036034;28;20606;-75
2022/03/09 10:03:16;;;;;;;4.70;4.40;;;;;;;2.61;71.36;92142.03;5040509;28;20589;-77
2022/03/09 10:05:44;;;;;;;3.23;3.13;;;;;;;2.66;70.84;92135.28;5040702;28;20209;-75
2022/03/09 10:08:16;;;;;;;4.27;3.97;;;;;;;2.65;68.63;92148.63;5038924;28;20597;-76
2022/03/09 10:10:46;;;;;;;4.97;4.70;;;;;;;2.93;68.25;92169.59;5036377;28;20514;-74
2022/03/09 10:13:16;;;;;;;14.00;9.97;;;;;;;3.03;67.95;92161.09;5039122;28;20598;-78
2022/03/09 10:15:45;;;;;;;7.60;7.03;;;;;;;3.25;67.39;92166.41;5041939;28;20267;-78
2022/03/09 10:18:16;;;;;;;7.03;6.73;;;;;;;3.04;65.00;92132.78;5039087;28;20577;-74
2022/03/09 10:20:46;;;;;;;4.07;3.87;;;;;;;3.55;66.01;92170.69;5038486;28;20525;-75
2022/03/09 10:23:15;;;;;;;11.03;8.33;;;;;;;3.82;65.62;92170.88;5040544;28;20571;-75
2022/03/09 10:25:43;;;;;;;4.57;4.43;;;;;;;3.96;65.90;92167.19;5043284;28;20522;-75
2022/03/09 10:28:12;;;;;;;5.93;5.43;;;;;;;3.47;63.95;92180.03;5040707;28;20578;-76
2022/03/09 10:30:41;;;;;;;5.87;3.97;;;;;;;3.07;64.23;92149.34;5041001;28;20544;-75
2022/03/09 10:33:10;;;;;;;2.33;2.23;;;;;;;3.09;62.81;92177.59;5043784;28;20318;-76
2022/03/09 10:35:43;;;;;;;5.87;4.17;;;;;;;2.82;62.85;92189.78;5040263;28;20477;-77
2022/03/09 10:38:25;;;;;;;5.73;5.23;;;;;;;2.59;63.91;92173.69;5038278;28;20500;-77
2022/03/09 10:40:55;;;;;;;2.60;2.53;;;;;;;2.61;64.83;92167.78;5040434;28;20635;-76
2022/03/09 10:43:23;;;;;;;2.97;2.77;;;;;;;2.79;65.09;92154.13;5038626;28;20606;-76
2022/03/09 10:46:05;;;;;;;4.67;4.37;;;;;;;3.04;65.23;92152.75;5040836;28;20598;-75
2022/03/09 10:48:57;;;;;;;3.90;3.77;;;;;;;3.05;64.78;92161.84;5037879;28;20659;-76
2022/03/09 10:51:29;;;;;;;1.80;1.80;;;;;;;3.07;63.19;92165.16;5038218;28;20492;-76
2022/03/09 10:53:59;;;;;;;4.70;4.30;;;;;;;3.11;62.86;92165.88;5037998;28;20491;-76
2022/03/09 10:56:26;;;;;;;8.20;4.27;;;;;;;3.09;62.27;92173.44;5043252;28;20655;-75
2022/03/09 10:58:53;;;;;;;5.47;5.10;;;;;;;3.12;62.17;92175.03;5033343;28;20449;-75
2022/03/09 11:01:23;;;;;;;3.73;3.40;;;;;;;2.98;61.27;92175.34;5044257;28;20507;-75
2022/03/09 11:03:51;;;;;;;3.43;3.13;;;;;;;3.01;62.70;92147.00;5042327;28;20201;-76
2022/03/09 11:06:18;;;;;;;8.90;3.27;;;;;;;3.21;63.45;92150.66;5036488;28;20550;-76
2022/03/09 11:08:46;;;;;;;3.17;2.97;;;;;;;3.21;61.51;92167.34;5035977;28;20578;-76
2022/03/09 11:11:15;;;;;;;3.93;3.73;;;;;;;3.26;62.69;92161.41;5038407;28;20572;-76
2022/03/09 11:13:42;;;;;;;2.47;2.37;;;;;;;3.20;62.24;92165.69;5038287;28;20198;-76
2022/03/09 11:16:10;;;;;;;3.57;3.40;;;;;;;3.16;60.00;92176.59;5038782;28;20553;-76
2022/03/09 11:18:38;;;;;;;3.33;3.13;;;;;;;3.49;61.75;92160.88;5035669;28;20658;-75
2022/03/09 11:21:07;;;;;;;2.70;2.60;;;;;;;3.87;61.93;92149.94;5038785;28;20248;-75
2022/03/09 11:23:39;;;;;;;3.07;2.87;;;;;;;4.06;59.14;92152.75;5037767;28;20533;-75
2022/03/09 11:26:09;;;;;;;3.13;2.43;;;;;;;5.10;58.23;92180.72;5040586;28;20486;-76
2022/03/09 11:28:39;;;;;;;3.80;3.70;;;;;;;5.88;55.46;92187.53;5038672;28;20571;-76
2022/03/09 11:31:08;;;;;;;5.27;3.40;;;;;;;5.91;50.95;92194.13;5037521;28;20529;-75
2022/03/09 11:33:43;;;;;;;39.47;16.17;;;;;;;6.62;51.81;92190.03;5036874;28;20522;-74
2022/03/09 11:36:35;;;;;;;9.67;4.80;;;;;;;7.18;49.68;92199.75;5043412;28;20573;-77
2022/03/09 11:39:24;;;;;;;4.87;4.37;;;;;;;7.28;47.66;92208.56;5035288;28;20228;-75
2022/03/09 11:42:28;;;;;;;7.30;6.70;;;;;;;7.61;47.27;92203.16;5051400;28;20499;-75
2022/03/09 11:45:30;;;;;;;4.43;4.03;;;;;;;7.32;45.63;92210.09;5038415;28;20525;-76